Latest Weather Observations for Oenpelli Airport

IDD60801

Issued at 5:31 pm CST Tuesday 28 February 2017 (issued every 30 minutes, with the page automatically refreshed every 10 minutes)

About weather observations | Map of weather stations | Latest weather observations for NT | Other Formats
Station Details ID: 014310 Name: OENPELLI AIRPORT Lat: -12.33 Lon: 133.01 Height: 7.5 m
Data from the previous 72 hours. | See also: Recent months at Oenpelli Airport
Date/Time
CST
Temp
°C
App
Temp
°C
Dew
Point
°C
Rel
Hum
%
Delta-T
°C
Wind Press
QNH
hPa
Press
MSL
hPa
Rain since
9am
mm
Dir  Spd
km/h
Gust
km/h
Spd
kts
Gust
kts
28/05:30pm 29.6 34.3 24.9 76 3.3 NNW 9 15 5 8 1006.2 1006.1 0.2
28/05:00pm 29.9 34.6 25.0 75 3.4 NW 9 15 5 8 1006.1 1006.0 0.2
28/04:30pm 30.3 35.0 24.9 73 3.8 NW 9 15 5 8 1005.7 1005.6 0.2
28/04:00pm 30.8 34.2 24.0 67 4.7 N 13 20 7 11 1005.8 1005.7 0.2
28/03:30pm 33.5 37.7 24.1 58 6.6 NE 9 13 5 7 1005.7 1005.6 0.2
28/03:00pm 33.3 36.9 23.0 54 7.1 ENE 9 13 5 7 1006.0 1005.9 0.2
28/02:30pm 32.7 36.6 23.6 58 6.3 NE 9 13 5 7 1006.3 1006.2 0.2
28/02:00pm 32.1 35.7 23.1 59 6.2 NNE 9 13 5 7 1006.7 1006.6 0.2
28/01:30pm 32.6 36.2 23.8 59 6.1 NNE 11 17 6 9 1006.8 1006.7 0.2
28/01:00pm 31.9 35.7 23.4 60 5.9 NNE 9 17 5 9 1007.3 1007.2 0.2
28/12:30pm 32.0 35.5 23.5 60 5.9 NE 11 19 6 10 1007.6 1007.5 0.2
28/12:00pm 32.4 35.3 23.1 58 6.4 NE 13 20 7 11 1008.1 1008.0 0.2
28/11:30am 31.6 35.4 24.0 64 5.3 ENE 11 20 6 11 1008.4 1008.3 0.2
28/11:00am 31.2 35.1 24.3 66 4.8 ENE 11 15 6 8 1008.6 1008.5 0.2
28/10:30am 30.4 33.3 23.8 68 4.6 NE 15 22 8 12 1009.0 1008.9 0.2
28/10:00am 30.1 34.5 23.8 69 4.4 ENE 7 13 4 7 1009.2 1009.1 0.2
28/09:30am 30.4 34.4 23.8 68 4.6 ENE 9 19 5 10 1009.6 1009.5 0.2
28/09:00am 29.4 34.4 24.5 75 3.4 E 6 11 3 6 1009.5 1009.4 4.4
28/08:30am 28.7 33.8 24.0 76 3.3 E 4 7 2 4 1009.4 1009.3 4.4
28/08:00am 28.4 34.7 24.8 81 2.5 CALM 0 0 0 0 1008.9 1008.8 4.4
28/07:30am 26.4 33.4 25.9 97 0.4 CALM 0 0 0 0 1008.7 1008.6 4.4
28/07:00am 25.2 31.8 25.2 100 0.0 CALM 0 0 0 0 1008.5 1008.4 4.4
28/06:30am 25.3 31.9 25.3 100 0.0 CALM 0 0 0 0 1008.2 1008.1 4.4
28/06:00am 25.2 31.8 25.2 100 0.0 CALM 0 0 0 0 1008.1 1008.0 4.4
28/05:30am 25.4 32.1 25.4 100 0.0 CALM 0 0 0 0 1008.3 1008.2 4.4
28/05:00am 25.3 31.9 25.3 100 0.0 CALM 0 0 0 0 1008.1 1008.0 4.4
28/04:30am 25.5 32.1 25.3 99 0.1 CALM 0 0 0 0 1007.9 1007.8 4.4
28/04:00am 25.7 32.6 25.7 100 0.0 CALM 0 0 0 0 1007.7 1007.6 4.4
28/03:30am 25.7 32.5 25.5 99 0.1 CALM 0 2 0 1 1007.6 1007.5 4.4
28/03:00am 25.8 32.6 25.6 99 0.1 CALM 0 0 0 0 1007.7 1007.6 4.4
28/02:30am 25.8 32.8 25.8 100 0.0 CALM 0 0 0 0 1007.8 1007.7 4.4
28/02:00am 25.6 32.2 25.3 98 0.2 CALM 0 0 0 0 1008.0 1007.9 4.4
28/01:30am 25.6 32.2 25.3 98 0.2 CALM 0 0 0 0 1008.2 1008.1 4.4
28/01:00am 25.5 32.1 25.2 98 0.2 CALM 0 0 0 0 1008.6 1008.5 4.4
28/12:30am 25.5 32.0 25.0 97 0.3 CALM 0 0 0 0 1008.9 1008.8 4.4
28/12:00am 25.4 31.5 24.5 95 0.6 CALM 0 0 0 0 1009.1 1009.0 4.4
 
Date/Time
CST
Temp
°C
App
Temp
°C
Dew
Point
°C
Rel
Hum
%
Delta-T
°C
Wind Press
QNH
hPa
Press
MSL
hPa
Rain since
9am
mm
Dir  Spd
km/h
Gust
km/h
Spd
kts
Gust
kts
27/11:30pm 25.5 31.8 24.8 96 0.5 CALM 0 0 0 0 1009.7 1009.6 4.4
27/11:00pm 25.4 31.7 24.7 96 0.5 CALM 0 0 0 0 1009.8 1009.7 4.4
27/10:30pm 25.3 31.0 24.4 95 0.6 ESE 2 4 1 2 1009.7 1009.6 4.4
27/10:00pm 25.2 30.7 24.0 93 0.8 NNE 2 6 1 3 1009.9 1009.8 4.4
27/09:30pm 25.1 30.2 24.1 94 0.7 NNE 4 7 2 4 1009.5 1009.4 4.4
27/09:00pm 24.7 29.0 23.3 92 1.0 E 6 7 3 4 1008.8 1008.7 4.4
27/08:30pm 24.8 28.7 23.0 90 1.2 E 7 17 4 9 1009.0 1008.9 4.2
27/08:00pm 27.1 29.6 23.8 82 2.3 NE 17 32 9 17 1009.0 1008.9 3.4
27/07:30pm 27.0 32.0 24.8 88 1.5 NNW 7 11 4 6 1008.0 1007.9 3.4
27/07:00pm 27.3 32.7 25.1 88 1.5 WNW 6 7 3 4 1007.8 1007.7 3.2
27/06:30pm 27.1 33.2 25.1 89 1.4 S 2 7 1 4 1007.2 1007.1 3.2
27/06:00pm 27.2 32.3 25.0 88 1.5 ENE 7 11 4 6 1006.6 1006.5 3.2
27/05:30pm 27.4 32.4 24.8 86 1.8 ENE 7 15 4 8 1006.1 1006.0 3.2
27/05:00pm 27.4 31.6 24.7 85 1.9 NE 11 15 6 8 1005.8 1005.7 3.2
27/04:30pm 27.3 30.7 24.0 82 2.3 NNE 13 17 7 9 1005.3 1005.2 3.2
27/04:00pm 26.4 29.8 24.6 90 1.2 NNE 15 26 8 14 1005.2 1005.1 3.2
27/03:30pm 27.2 31.9 25.0 88 1.5 ESE 9 24 5 13 1005.9 1005.8 1.8
27/03:00pm 29.6 31.5 21.3 61 5.6 S 13 39 7 21 1005.8 1005.7 0.0
27/02:30pm 33.2 38.0 24.4 60 6.2 SW 7 9 4 5 1006.0 1005.9 0.0
27/02:00pm 33.0 37.7 23.3 56 6.7 WSW 4 7 2 4 1006.7 1006.6 0.0
27/01:30pm 32.6 36.5 23.0 57 6.6 NE 7 15 4 8 1007.2 1007.1 0.0
27/01:00pm 33.6 38.4 24.2 58 6.6 NNW 6 13 3 7 1007.5 1007.4 0.0
27/12:30pm 32.9 37.5 23.8 58 6.3 N 6 9 3 5 1007.9 1007.8 0.0
27/12:00pm 32.4 37.3 24.4 62 5.6 N 6 11 3 6 1008.3 1008.2 0.0
27/11:30am 32.4 38.5 25.0 65 5.2 WNW 2 6 1 3 1008.7 1008.6 0.0
27/11:00am 31.0 36.7 24.4 68 4.6 NW 2 6 1 3 1009.1 1009.0 0.0
27/10:30am 31.1 35.9 24.2 66 4.8 N 6 9 3 5 1009.3 1009.2 0.0
27/10:00am 31.0 36.8 24.6 68 4.5 NE 2 6 1 3 1009.6 1009.5 0.0
27/09:30am 30.2 35.9 24.4 71 4.1 SSE 2 6 1 3 1009.6 1009.5 0.0
27/09:00am 29.6 35.4 24.5 74 3.6 SSE 2 6 1 3 1009.6 1009.5 10.2
27/08:30am 29.2 34.6 24.5 76 3.3 SE 4 7 2 4 1009.4 1009.3 10.2
27/08:00am 27.8 34.1 24.8 84 2.1 CALM 0 0 0 0 1009.2 1009.1 10.2
27/07:30am 26.4 33.2 25.5 95 0.6 CALM 0 0 0 0 1008.7 1008.6 10.2
27/07:00am 25.3 31.9 25.3 100 0.0 CALM 0 0 0 0 1008.2 1008.1 10.2
27/06:30am 25.0 31.3 24.7 98 0.2 CALM 0 4 0 2 1008.2 1008.1 10.2
27/06:00am 25.1 30.8 24.4 96 0.5 E 2 4 1 2 1007.9 1007.8 10.2
27/05:30am 25.3 30.8 24.6 96 0.5 ENE 4 6 2 3 1007.7 1007.6 10.2
27/05:00am 25.5 30.1 24.1 92 1.0 ENE 7 9 4 5 1007.8 1007.7 10.0
27/04:30am 25.4 31.2 24.5 95 0.6 SW 2 6 1 3 1007.7 1007.6 10.0
27/04:00am 25.4 31.5 24.5 95 0.6 CALM 0 0 0 0 1007.6 1007.5 10.0
27/03:30am 25.6 32.2 25.3 98 0.2 CALM 0 0 0 0 1007.7 1007.6 10.0
27/03:00am 25.7 32.2 25.0 96 0.5 CALM 0 0 0 0 1007.8 1007.7 10.0
27/02:30am 25.6 31.9 24.7 95 0.6 CALM 0 0 0 0 1008.2 1008.1 10.0
27/02:00am 25.6 31.8 24.6 94 0.7 CALM 0 0 0 0 1008.8 1008.7 10.0
27/01:30am 25.6 31.3 23.8 90 1.2 CALM 0 0 0 0 1009.2 1009.1 10.0
27/01:00am 25.9 32.2 24.7 93 0.8 CALM 0 0 0 0 1009.4 1009.3 10.0
27/12:30am 25.7 31.6 24.1 91 1.1 CALM 0 4 0 2 1009.5 1009.4 10.0
27/12:00am 25.8 31.5 23.8 89 1.4 CALM 0 0 0 0 1009.5 1009.4 10.0
 
Date/Time
CST
Temp
°C
App
Temp
°C
Dew
Point
°C
Rel
Hum
%
Delta-T
°C
Wind Press
QNH
hPa
Press
MSL
hPa
Rain since
9am
mm
Dir  Spd
km/h
Gust
km/h
Spd
kts
Gust
kts
26/11:30pm 25.9 31.1 23.6 87 1.6 SW 2 6 1 3 1009.8 1009.7 10.0
26/11:00pm 25.7 29.8 23.0 85 1.8 SW 6 6 3 3 1009.8 1009.7 10.0
26/10:30pm 25.3 29.2 22.6 85 1.8 SW 6 9 3 5 1010.0 1009.9 10.0
26/10:00pm 24.9 27.3 22.2 85 1.8 E 13 20 7 11 1009.7 1009.6 10.0
26/09:30pm 24.8 28.6 22.7 88 1.4 E 7 11 4 6 1009.3 1009.2 10.0
26/09:00pm 24.9 27.5 22.6 87 1.5 NE 13 20 7 11 1008.7 1008.6 10.0
26/08:30pm 25.8 27.8 22.9 84 2.0 NNE 17 24 9 13 1008.4 1008.3 10.0
26/08:00pm 26.3 30.1 24.7 91 1.1 NE 13 20 7 11 1008.1 1008.0 10.0
26/07:30pm 26.3 30.5 24.7 91 1.1 NNE 11 19 6 10 1007.4 1007.3 10.0
26/07:00pm 25.7 30.2 23.9 90 1.2 NE 7 13 4 7 1007.1 1007.0 10.0
26/06:30pm 26.1 29.4 23.8 87 1.6 NNE 13 19 7 10 1006.5 1006.4 10.0
26/06:00pm 26.4 30.8 25.7 96 0.5 NNW 13 20 7 11 1006.2 1006.1 10.0
26/05:30pm 25.8 28.2 23.7 88 1.4 NE 17 24 9 13 1006.5 1006.4 8.0
26/05:14pm 27.4 29.0 22.1 73 3.6 NW 17 48 9 26 1005.8 1005.7 4.8
26/05:00pm 30.8 35.7 25.2 72 4.0 SSW 9 17 5 9 1004.6 1004.5 2.6
26/04:30pm 33.3 38.8 25.3 63 5.7 SW 6 9 3 5 1004.3 1004.2 2.6
26/04:00pm 31.6 37.2 25.7 71 4.2 WSW 7 13 4 7 1004.5 1004.4 2.6
26/03:30pm 32.4 36.6 23.1 58 6.4 S 6 19 3 10 1004.9 1004.8 0.0
26/03:00pm 33.1 37.6 23.7 57 6.6 W 6 9 3 5 1005.0 1004.9 0.0
26/02:30pm 33.1 37.8 24.3 60 6.2 NW 7 11 4 6 1005.4 1005.3 0.0
26/02:00pm 33.5 38.3 24.4 59 6.4 W 7 11 4 6 1005.6 1005.5 0.0
26/01:30pm 33.7 38.9 24.8 59 6.3 SW 6 11 3 6 1005.8 1005.7 0.0
26/01:00pm 33.5 38.8 24.9 60 6.1 SW 6 9 3 5 1006.2 1006.1 0.0
26/12:30pm 32.7 37.7 24.5 62 5.8 SW 6 11 3 6 1006.7 1006.6 0.0
26/12:00pm 33.0 39.1 25.0 63 5.7 SW 2 6 1 3 1007.3 1007.2 0.0
26/11:30am 31.8 37.3 24.7 66 5.0 SW 4 7 2 4 1007.7 1007.6 0.0
26/11:00am 30.9 36.3 24.5 68 4.5 SSW 4 9 2 5 1008.1 1008.0 0.0
26/10:30am 30.2 35.8 24.8 73 3.8 SW 4 9 2 5 1008.4 1008.3 0.0
26/10:00am 29.8 34.9 24.9 75 3.4 SSW 7 13 4 7 1008.7 1008.6 0.0
26/09:30am 29.0 33.9 24.3 76 3.3 SSW 6 7 3 4 1008.6 1008.5 0.0
26/09:00am 28.6 33.5 24.4 78 2.9 SSW 6 9 3 5 1008.7 1008.6 0.2
26/08:30am 27.9 32.9 24.5 82 2.4 SSW 6 9 3 5 1008.9 1008.8 0.2
26/08:00am 27.2 32.4 24.8 87 1.7 SSW 6 11 3 6 1008.6 1008.5 0.2
26/07:30am 26.9 32.9 25.5 92 1.0 SSE 4 6 2 3 1008.4 1008.3 0.2
26/07:00am 25.7 31.4 25.0 96 0.5 SSW 4 4 2 2 1008.0 1007.9 0.2
26/06:30am 25.7 31.7 24.8 95 0.6 SSW 2 4 1 2 1007.9 1007.8 0.2
26/06:00am 25.8 31.8 24.8 94 0.7 S 2 4 1 2 1007.7 1007.6 0.2
26/05:30am 25.9 31.5 24.9 94 0.7 SSW 4 6 2 3 1007.7 1007.6 0.2
26/05:00am 26.0 31.3 25.0 94 0.7 SSW 6 7 3 4 1007.7 1007.6 0.2
26/04:30am 26.0 31.8 24.6 92 1.0 S 2 6 1 3 1007.8 1007.7 0.2
26/04:00am 26.2 32.4 24.6 91 1.1 CALM 0 0 0 0 1007.8 1007.7 0.2
26/03:30am 26.0 31.6 24.8 93 0.8 SSW 4 6 2 3 1008.3 1008.2 0.2
26/03:00am 25.9 32.0 24.5 92 1.0 CALM 0 0 0 0 1008.5 1008.4 0.2
26/02:30am 26.1 31.9 24.0 88 1.4 CALM 0 0 0 0 1008.7 1008.6 0.2
26/02:00am 26.2 31.1 23.7 86 1.7 S 4 9 2 5 1008.8 1008.7 0.0
26/01:30am 26.6 32.4 24.6 89 1.4 E 2 4 1 2 1009.4 1009.3 0.0
26/01:00am 26.5 32.1 24.9 91 1.1 ENE 4 6 2 3 1009.6 1009.5 0.0
26/12:30am 26.4 32.6 24.6 90 1.2 CALM 0 0 0 0 1010.0 1009.9 0.0
26/12:00am 26.3 32.1 24.0 87 1.6 CALM 0 2 0 1 1010.2 1010.1 0.0
 
Date/Time
CST
Temp
°C
App
Temp
°C
Dew
Point
°C
Rel
Hum
%
Delta-T
°C
Wind Press
QNH
hPa
Press
MSL
hPa
Rain since
9am
mm
Dir  Spd
km/h
Gust
km/h
Spd
kts
Gust
kts
25/11:30pm 26.4 32.1 25.0 92 1.0 S 4 6 2 3 1010.4 1010.3 0.0
25/11:00pm 26.1 32.5 24.9 93 0.8 CALM 0 0 0 0 1010.4 1010.3 0.0
25/10:30pm 26.1 32.4 24.7 92 1.0 CALM 0 0 0 0 1010.3 1010.2 0.0
25/10:00pm 26.0 31.6 24.2 90 1.2 SW 2 4 1 2 1010.0 1009.9 0.0
25/09:30pm 25.9 31.8 24.1 90 1.2 CALM 0 6 0 3 1009.3 1009.2 0.0
25/09:00pm 25.7 31.5 23.9 90 1.2 CALM 0 0 0 0 1008.8 1008.7 0.0
25/08:30pm 25.6 31.3 23.7 89 1.3 CALM 0 4 0 2 1008.8 1008.7 0.0
25/08:00pm 25.6 30.2 23.8 90 1.2 NE 6 9 3 5 1008.5 1008.4 0.0
25/07:30pm 25.6 31.7 24.4 93 0.8 CALM 0 6 0 3 1008.2 1008.1 0.0
25/07:00pm 25.3 27.7 23.7 91 1.1 N 17 26 9 14 1008.5 1008.4 0.0
25/06:30pm 25.1 26.6 23.7 92 1.0 N 22 32 12 17 1008.4 1008.3 0.0
25/06:00pm 29.4 32.9 23.6 71 4.0 N 11 22 6 12 1008.3 1008.2 0.0

Other Formats:

Comma delimited format used in spreadsheet applications
http://www.bom.gov.au/fwo/IDD60801/IDD60801.94110.axf

JavaScript Object Notation format (JSON) in row-major order
http://www.bom.gov.au/fwo/IDD60801/IDD60801.94110.json